createdAt,value
2018-04-01T00:00:47.232Z,9.73
2018-04-01T00:03:12.964Z,9.75
2018-04-01T00:05:38.457Z,9.70
2018-04-01T00:08:03.988Z,9.65
2018-04-01T00:10:29.732Z,9.78
2018-04-01T00:12:55.261Z,9.70
2018-04-01T00:15:20.808Z,9.64
2018-04-01T00:17:46.472Z,9.65
2018-04-01T00:20:12.491Z,9.45
2018-04-01T00:22:38.009Z,9.45
2018-04-01T00:25:03.833Z,9.85
2018-04-01T00:27:29.407Z,9.50
2018-04-01T00:29:54.952Z,9.63
2018-04-01T00:32:20.684Z,9.47
2018-04-01T00:34:46.247Z,9.39
2018-04-01T00:37:11.791Z,9.55
2018-04-01T00:39:37.605Z,9.45
2018-04-01T00:42:03.123Z,9.43
2018-04-01T00:44:28.679Z,9.23
2018-04-01T00:46:54.418Z,9.37
2018-04-01T00:49:19.926Z,9.41
2018-04-01T00:51:45.461Z,9.12
2018-04-01T00:54:11.234Z,9.18
2018-04-01T00:56:36.745Z,9.22
2018-04-01T00:59:02.269Z,9.19
2018-04-01T01:01:27.986Z,9.12
2018-04-01T19:15:05.506Z,14.69
2018-04-01T19:17:31.092Z,9.56
2018-04-01T19:19:56.648Z,8.57
2018-04-01T19:22:22.616Z,8.43
2018-04-01T19:24:48.175Z,8.42
2018-04-01T19:27:13.731Z,8.25
2018-04-01T19:29:39.684Z,8.16
2018-04-01T19:32:05.237Z,8.07
2018-04-01T19:34:30.854Z,8.19
2018-04-01T19:36:56.768Z,8.18
2018-04-01T19:39:22.337Z,8.27
2018-04-01T19:41:47.926Z,8.23
2018-04-01T19:44:14.067Z,8.02
2018-04-01T19:46:39.625Z,8.25
2018-04-01T19:49:05.158Z,8.19
2018-04-01T19:51:31.481Z,8.15
2018-04-01T19:53:57.042Z,8.14
2018-04-01T19:56:22.590Z,8.26
2018-04-01T19:58:48.467Z,8.07
2018-04-01T20:01:14.026Z,8.10
2018-04-01T20:03:39.602Z,8.21
2018-04-01T20:06:05.532Z,8.16
2018-04-01T20:08:31.154Z,8.10
2018-04-01T20:10:56.720Z,8.10
2018-04-01T20:13:22.716Z,7.96
2018-04-01T20:15:48.302Z,7.89
2018-04-01T20:18:14.943Z,7.87
2018-04-01T20:20:40.971Z,7.87
2018-04-01T20:23:06.710Z,7.94
2018-04-01T20:25:32.304Z,7.89
2018-04-01T20:28:00.151Z,7.91
2018-04-01T20:30:25.840Z,7.96
2018-04-01T20:32:51.483Z,8.04
2018-04-01T20:35:17.800Z,7.93
2018-04-01T20:37:43.511Z,7.93
2018-04-01T20:40:09.293Z,7.92
2018-04-01T20:42:35.833Z,7.81
2018-04-01T20:45:01.527Z,7.72
2018-04-01T20:47:27.053Z,7.69
2018-04-01T20:49:53.548Z,7.78
2018-04-01T20:52:19.184Z,7.61
2018-04-01T20:54:44.769Z,7.56
2018-04-01T20:57:12.903Z,7.58
2018-04-01T20:59:38.463Z,7.62
2018-04-01T21:02:04.147Z,7.52
2018-04-01T21:04:30.310Z,7.63
2018-04-01T21:06:55.875Z,7.61
2018-04-01T21:09:21.433Z,7.63
2018-04-01T21:11:48.340Z,7.45
2018-04-01T21:14:14.124Z,7.44
2018-04-01T21:16:39.714Z,7.55
2018-04-01T21:19:05.985Z,7.58
2018-04-01T21:21:31.564Z,7.57
2018-04-01T21:23:57.191Z,7.93
2018-04-01T21:26:23.641Z,7.62
2018-04-01T21:28:49.304Z,7.48
2018-04-01T21:31:14.957Z,7.64
2018-04-01T21:33:40.746Z,7.75
2018-04-01T21:36:06.334Z,7.66
2018-04-01T21:38:31.934Z,7.73
2018-04-01T21:40:58.509Z,7.80
2018-04-01T21:43:24.102Z,7.75
2018-04-01T21:45:49.827Z,7.69
2018-04-01T21:48:15.740Z,7.75
2018-04-01T21:50:41.296Z,7.74
2018-04-01T21:53:06.850Z,7.80
2018-04-01T21:55:32.604Z,7.87
2018-04-01T21:57:58.161Z,7.92
2018-04-01T22:00:23.710Z,7.97
2018-04-01T22:02:49.512Z,7.95
2018-04-01T22:05:15.063Z,7.95
2018-04-01T22:07:40.596Z,7.99
2018-04-01T22:10:06.409Z,8.01
2018-04-01T22:12:31.941Z,8.05
2018-04-01T22:14:57.491Z,7.97
2018-04-01T22:17:23.260Z,7.94
2018-04-01T22:19:49.231Z,8.02
2018-04-01T22:22:14.777Z,8.17
2018-04-01T22:24:40.527Z,8.03
2018-04-01T22:27:06.062Z,7.94
2018-04-01T22:29:31.648Z,7.94
2018-04-01T22:31:57.323Z,7.90
2018-04-01T22:34:22.868Z,7.83
2018-04-01T22:36:48.425Z,7.95
2018-04-01T22:39:14.546Z,7.95
2018-04-01T22:41:40.108Z,7.85
2018-04-01T22:44:05.695Z,7.78
2018-04-01T22:46:31.523Z,7.88
2018-04-01T22:48:57.066Z,7.86
2018-04-01T22:51:22.624Z,7.78
2018-04-01T22:53:48.469Z,7.75
2018-04-01T22:56:13.998Z,7.69
2018-04-01T22:58:39.549Z,7.82
2018-04-01T23:01:05.330Z,7.69
2018-04-01T23:03:30.893Z,7.79
2018-04-01T23:05:56.435Z,7.69
2018-04-01T23:08:22.218Z,7.87
2018-04-01T23:10:47.779Z,7.84
2018-04-01T23:13:13.329Z,7.78
2018-04-01T23:15:39.058Z,7.81
2018-04-01T23:18:04.588Z,7.83
2018-04-01T23:20:30.141Z,7.80
2018-04-01T23:22:56.476Z,7.79
2018-04-01T23:25:22.031Z,7.90
2018-04-01T23:27:47.593Z,7.78
2018-04-01T23:30:13.367Z,7.78
2018-04-01T23:32:38.971Z,7.84
2018-04-01T23:35:04.509Z,7.83
2018-04-01T23:37:30.237Z,7.69
2018-04-01T23:39:55.791Z,7.78
2018-04-01T23:42:21.355Z,7.72
2018-04-01T23:44:47.110Z,7.70
2018-04-01T23:47:12.633Z,7.69
2018-04-01T23:49:38.196Z,7.59
2018-04-01T23:52:03.904Z,7.66
2018-04-01T23:54:29.447Z,7.52
2018-04-01T23:56:55.001Z,7.75
2018-04-01T23:59:20.752Z,7.73
